x

Long Key, Fl (lonf1) Weather Station

2:00am - Mon 27th Apr 2015 All times are CDT. -4 hours from GMT.

  • Wind
    7mph, 9mph gusts
  • Sea Temp 87°f
  • Air Temp 83°f
  • Sea Pressure 1010.3mb
  • Long Key, Fl
  • Long Key, Fl

More Historic Weather Station data

Upgrade to MSW Pro to gain access to the past 30 days of data for over 8000 Wavebouys and Weather Stations around the globe.

Join Pro

Comparision Forecast

View Surf forecast
   
Mon 04/27 2:00am 7 9 mph 1010.3mb 87f 83f
1:00am 10 11 mph 1011.1mb 87f 83f
12:00am 11 14 mph 1011.4mb 87f 83f
Sun 04/26 11:00pm 11 14 mph 1011.2mb 88f 84f
10:00pm 13 15 mph 1010.9mb 88f 85f
9:00pm 13 15 mph 1010.4mb 88f 85f
8:00pm 15 16 mph 1009.8mb 88f 85f
7:00pm 13 15 mph 1009.8mb 88f 86f
6:00pm 13 15 mph 1009.7mb 88f 86f
5:00pm 11 14 mph 1009.8mb 88f 86f
4:00pm 13 14 mph 1010.2mb 88f 86f
3:00pm 11 15 mph 1011mb 88f 85f
2:00pm 10 11 mph 1011.2mb 87f 85f
1:00pm 16 17 mph 1011.5mb 87f 85f
12:00pm 16 17 mph 1012mb 86f 85f
11:00am 16 17 mph 1012.2mb 86f 84f
10:00am 15 17 mph 1012.2mb 86f 84f
9:00am 14 16 mph 1012.1mb 86f 85f
8:00am 9
mph
1012mb 86f 84f
7:00am 14 16 mph 1011.7mb 86f 83f
6:00am 14 15 mph 1011.5mb 86f 83f
5:00am 16 20 mph 1010.9mb 86f 82f
4:00am 16 18 mph 1011.6mb 87f 82f
3:00am 20 21 mph 1011.7mb 87f 82f
2:00am 11 13 mph 1012.5mb 87f 82f
1:00am 10 13 mph 1013mb 87f 82f
12:00am 9 10 mph 1013.9mb 87f 82f
Sat 04/25 11:00pm 9 11 mph 1013.8mb 88f 82f
10:00pm 8 10 mph 1013.4mb 88f 82f
9:00pm 9 11 mph 1012.9mb 88f 82f
8:00pm 9 11 mph 1012.6mb 88f 82f
7:00pm 6 9 mph 1012.5mb 88f 83f
6:00pm 3 7 mph 1012.4mb 88f 83f
5:00pm 7 8 mph 1012.4mb 88f 84f
4:00pm 1 6 mph 1013mb 88f 83f
3:00pm 5
mph
1014mb 88f 83f
2:00pm 2 7 mph 1014.6mb 87f 82f
1:00pm 9 10 mph 1014.8mb 87f 82f
12:00pm 9 11 mph 1015.3mb 86f 82f
11:00am 5 9 mph 1015.5mb 86f 82f
10:00am 10 11 mph 1015.6mb 86f 82f
9:00am 8 10 mph 1015.2mb 86f 82f
8:00am 9 10 mph 1014.9mb 86f 81f
7:00am 11 13 mph 1014.3mb 86f 81f
6:00am 8 9 mph 1013.7mb 86f 81f
5:00am 9 10 mph 1013mb 86f 81f
4:00am 9 10 mph 1013.1mb 86f 82f
3:00am 1 2 mph 1013.4mb 86f 81f
2:00am 3 6 mph 1014.6mb 86f 82f
1:00am 8 10 mph 1015.2mb 87f 82f
12:00am 11 14 mph 1015.6mb 87f 83f
Fri 04/24 11:00pm 9 10 mph 1015.7mb 87f 83f
10:00pm 13 15 mph 1015.3mb 87f 83f
9:00pm 14 15 mph 1014.8mb 87f 83f
8:00pm 17 20 mph 1014.5mb 87f 83f
7:00pm 15 17 mph 1014.1mb 88f 83f
6:00pm 15 16 mph 1014.2mb 88f 84f
5:00pm 14 15 mph 1014.4mb 88f 83f
4:00pm 15 17 mph 1014.4mb 88f 83f
3:00pm 14 15 mph 1015mb 87f 83f
2:00pm 11 13 mph 1015.8mb 87f 83f
1:00pm 8 10 mph 1016mb 87f 82f
12:00pm 8 10 mph 1016.8mb 86f 83f
11:00am  -  5 mph 1016.7mb 86f 83f
10:00am 3 8 mph 1016.3mb 86f 82f
9:00am 5 6 mph 1015.9mb 85f 82f
8:00am 3 5 mph 1015.5mb 85f 82f
7:00am 3 6 mph 1014.8mb 85f 81f
6:00am 2 3 mph 1014.4mb 86f 81f
5:00am 1 2 mph 1013.9mb 86f 81f
4:00am 3 5 mph 1013.9mb 86f 81f
3:00am 2
mph
1014.1mb 86f 81f
2:00am 3
mph
1014.9mb 86f 81f
1:00am 5 7 mph 1015.5mb 86f 82f
12:00am 7 8 mph 1016.2mb 86f 82f
Thu 04/23 11:00pm 10 13 mph 1015.9mb 87f 82f
10:00pm 14 17 mph 1016.1mb 87f 80f
9:00pm 10 11 mph 1015.5mb 87f 83f
8:00pm 13 14 mph 1014.6mb 87f 83f
7:00pm 8 10 mph 1014.2mb 87f 83f
6:00pm  -  2 mph 1014.3mb 87f 83f
5:00pm 5 7 mph 1014.1mb 87f 83f
4:00pm 2 6 mph 1013.9mb 87f 82f
3:00pm 5 9 mph 1014.6mb 87f 83f
2:00pm 5 6 mph 1015.5mb 86f 83f
1:00pm 7 9 mph 1015.8mb 85f 82f
12:00pm 8 9 mph 1015.9mb 85f 82f
11:00am 7 8 mph 1016.3mb 85f 83f
10:00am 6 7 mph 1016.4mb 84f 83f
9:00am 2 3 mph 1016.4mb 84f 82f
8:00am 2 7 mph 1015.6mb 84f 81f